sensor_id;sensor_type;location;lat;lon;timestamp;pressure;altitude;pressure_sealevel;temperature;humidity
65054;BME280;51639;47.828;35.038;2023-07-16T00:01:23;100291.31;;;25.18;81.38
65054;BME280;51639;47.828;35.038;2023-07-16T00:16:25;100300.75;;;24.98;83.33
65054;BME280;51639;47.828;35.038;2023-07-16T00:31:27;100301.03;;;24.95;83.21
65054;BME280;51639;47.828;35.038;2023-07-16T00:46:29;100294.38;;;25.09;82.90
65054;BME280;51639;47.828;35.038;2023-07-16T01:01:32;100295.81;;;24.69;85.87
65054;BME280;51639;47.828;35.038;2023-07-16T01:16:34;100281.53;;;24.54;87.74
65054;BME280;51639;47.828;35.038;2023-07-16T01:31:36;100295.41;;;24.54;88.38
65054;BME280;51639;47.828;35.038;2023-07-16T01:46:39;100293.44;;;24.32;90.62
65054;BME280;51639;47.828;35.038;2023-07-16T02:01:41;100297.72;;;24.10;92.52
65054;BME280;51639;47.828;35.038;2023-07-16T02:16:43;100297.50;;;23.92;93.16
65054;BME280;51639;47.828;35.038;2023-07-16T02:31:45;100300.28;;;23.86;95.55
65054;BME280;51639;47.828;35.038;2023-07-16T02:46:50;100302.72;;;24.51;92.08
65054;BME280;51639;47.828;35.038;2023-07-16T03:01:52;100315.75;;;24.73;90.71
65054;BME280;51639;47.828;35.038;2023-07-16T03:16:55;100330.31;;;24.85;89.74
65054;BME280;51639;47.828;35.038;2023-07-16T03:31:57;100336.59;;;25.02;91.00
65054;BME280;51639;47.828;35.038;2023-07-16T03:46:59;100355.84;;;25.35;90.87
65054;BME280;51639;47.828;35.038;2023-07-16T04:02:01;100361.59;;;25.84;89.68
65054;BME280;51639;47.828;35.038;2023-07-16T04:17:04;100378.72;;;26.48;87.16
65054;BME280;51639;47.828;35.038;2023-07-16T04:32:06;100393.47;;;27.29;85.16
65054;BME280;51639;47.828;35.038;2023-07-16T04:47:08;100403.25;;;27.73;80.64
65054;BME280;51639;47.828;35.038;2023-07-16T05:02:10;100400.94;;;28.36;76.34
65054;BME280;51639;47.828;35.038;2023-07-16T05:17:13;100401.41;;;28.79;73.48
65054;BME280;51639;47.828;35.038;2023-07-16T05:32:15;100412.25;;;29.57;70.43
65054;BME280;51639;47.828;35.038;2023-07-16T05:47:17;100408.97;;;30.21;66.13
65054;BME280;51639;47.828;35.038;2023-07-16T06:02:20;100423.88;;;30.72;63.59
65054;BME280;51639;47.828;35.038;2023-07-16T06:17:22;100426.00;;;30.79;59.38
65054;BME280;51639;47.828;35.038;2023-07-16T06:32:24;100425.81;;;31.13;56.43
65054;BME280;51639;47.828;35.038;2023-07-16T06:47:26;100429.75;;;31.77;51.67
65054;BME280;51639;47.828;35.038;2023-07-16T07:02:28;100426.22;;;32.14;49.49
65054;BME280;51639;47.828;35.038;2023-07-16T07:17:30;100422.69;;;32.52;47.24
65054;BME280;51639;47.828;35.038;2023-07-16T07:32:32;100418.63;;;33.01;44.58
65054;BME280;51639;47.828;35.038;2023-07-16T07:47:34;100437.47;;;33.23;44.16
65054;BME280;51639;47.828;35.038;2023-07-16T08:02:37;100414.25;;;33.87;41.75
65054;BME280;51639;47.828;35.038;2023-07-16T08:17:43;100419.13;;;33.54;40.61
65054;BME280;51639;47.828;35.038;2023-07-16T08:32:46;100404.50;;;34.31;39.29
65054;BME280;51639;47.828;35.038;2023-07-16T08:47:48;100397.81;;;34.61;38.68
65054;BME280;51639;47.828;35.038;2023-07-16T09:02:52;100391.69;;;34.72;37.23
65054;BME280;51639;47.828;35.038;2023-07-16T09:17:54;100403.16;;;35.35;37.35
65054;BME280;51639;47.828;35.038;2023-07-16T09:32:57;100399.97;;;35.48;34.93
65054;BME280;51639;47.828;35.038;2023-07-16T09:47:59;100390.78;;;36.31;35.93
65054;BME280;51639;47.828;35.038;2023-07-16T10:03:01;100391.13;;;36.83;34.67
65054;BME280;51639;47.828;35.038;2023-07-16T10:18:03;100374.28;;;37.54;32.89
65054;BME280;51639;47.828;35.038;2023-07-16T10:33:11;100390.78;;;37.68;33.17
65054;BME280;51639;47.828;35.038;2023-07-16T10:48:14;100382.94;;;38.18;31.79
65054;BME280;51639;47.828;35.038;2023-07-16T11:03:17;100376.69;;;38.32;31.03
65054;BME280;51639;47.828;35.038;2023-07-16T11:18:25;100368.94;;;37.80;30.21
65054;BME280;51639;47.828;35.038;2023-07-16T11:33:35;100383.72;;;36.12;32.07
65054;BME280;51639;47.828;35.038;2023-07-16T11:48:37;100363.75;;;34.66;31.82
65054;BME280;51639;47.828;35.038;2023-07-16T12:03:39;100370.00;;;33.80;35.33
65054;BME280;51639;47.828;35.038;2023-07-16T12:18:41;100369.13;;;33.45;36.09
65054;BME280;51639;47.828;35.038;2023-07-16T12:33:43;100351.47;;;33.45;36.13
65054;BME280;51639;47.828;35.038;2023-07-16T12:48:45;100360.38;;;32.94;36.18
65054;BME280;51639;47.828;35.038;2023-07-16T13:03:47;100353.69;;;32.81;37.36
65054;BME280;51639;47.828;35.038;2023-07-16T13:18:49;100343.69;;;32.88;37.48
65054;BME280;51639;47.828;35.038;2023-07-16T13:33:51;100351.13;;;32.45;38.62
65054;BME280;51639;47.828;35.038;2023-07-16T13:48:53;100336.16;;;32.43;38.62
65054;BME280;51639;47.828;35.038;2023-07-16T14:04:00;100345.91;;;32.42;38.48
65054;BME280;51639;47.828;35.038;2023-07-16T14:19:02;100352.31;;;32.04;38.65
65054;BME280;51639;47.828;35.038;2023-07-16T14:34:04;100351.34;;;31.64;39.10
65054;BME280;51639;47.828;35.038;2023-07-16T14:49:06;100352.59;;;31.32;39.19
65054;BME280;51639;47.828;35.038;2023-07-16T15:04:08;100364.91;;;31.14;40.30
65054;BME280;51639;47.828;35.038;2023-07-16T15:19:11;100358.84;;;31.02;40.48
65054;BME280;51639;47.828;35.038;2023-07-16T15:34:13;100363.84;;;30.89;40.67
65054;BME280;51639;47.828;35.038;2023-07-16T15:49:17;100358.63;;;30.93;40.67
65054;BME280;51639;47.828;35.038;2023-07-16T16:04:19;100354.84;;;30.82;41.24
65054;BME280;51639;47.828;35.038;2023-07-16T16:19:22;100357.94;;;30.71;41.58
65054;BME280;51639;47.828;35.038;2023-07-16T16:34:24;100361.13;;;30.39;41.93
65054;BME280;51639;47.828;35.038;2023-07-16T16:49:26;100370.16;;;30.25;42.51
65054;BME280;51639;47.828;35.038;2023-07-16T17:04:29;100370.13;;;29.96;43.42
65054;BME280;51639;47.828;35.038;2023-07-16T17:19:31;100387.16;;;29.64;44.32
65054;BME280;51639;47.828;35.038;2023-07-16T17:34:35;100395.78;;;29.19;45.04
65054;BME280;51639;47.828;35.038;2023-07-16T17:49:39;100408.09;;;28.90;46.34
65054;BME280;51639;47.828;35.038;2023-07-16T18:04:41;100431.28;;;28.71;46.75
65054;BME280;51639;47.828;35.038;2023-07-16T18:19:44;100439.84;;;28.47;47.39
65054;BME280;51639;47.828;35.038;2023-07-16T18:34:46;100455.63;;;28.31;49.07
65054;BME280;51639;47.828;35.038;2023-07-16T18:49:53;100453.97;;;28.23;48.40
65054;BME280;51639;47.828;35.038;2023-07-16T19:04:55;100455.97;;;28.09;48.70
65054;BME280;51639;47.828;35.038;2023-07-16T19:19:57;100444.84;;;27.71;49.77
65054;BME280;51639;47.828;35.038;2023-07-16T19:35:00;100450.13;;;27.75;49.59
65054;BME280;51639;47.828;35.038;2023-07-16T19:50:03;100450.13;;;27.75;50.50
65054;BME280;51639;47.828;35.038;2023-07-16T20:05:07;100444.06;;;27.90;50.27
65054;BME280;51639;47.828;35.038;2023-07-16T20:20:10;100445.16;;;27.68;50.71
65054;BME280;51639;47.828;35.038;2023-07-16T20:35:13;100439.63;;;27.43;51.23
65054;BME280;51639;47.828;35.038;2023-07-16T20:50:17;100444.97;;;27.41;51.77
65054;BME280;51639;47.828;35.038;2023-07-16T21:05:22;100441.38;;;27.46;51.59
65054;BME280;51639;47.828;35.038;2023-07-16T21:20:26;100451.41;;;27.36;51.98
65054;BME280;51639;47.828;35.038;2023-07-16T21:35:30;100455.09;;;27.44;52.11
65054;BME280;51639;47.828;35.038;2023-07-16T21:50:32;100443.69;;;27.05;52.61
65054;BME280;51639;47.828;35.038;2023-07-16T22:05:34;100439.16;;;26.77;53.17
65054;BME280;51639;47.828;35.038;2023-07-16T22:20:37;100437.78;;;26.65;53.57
65054;BME280;51639;47.828;35.038;2023-07-16T22:35:39;100440.06;;;26.37;53.99
65054;BME280;51639;47.828;35.038;2023-07-16T22:50:45;100442.91;;;26.31;54.58
65054;BME280;51639;47.828;35.038;2023-07-16T23:05:48;100443.06;;;26.09;55.14
65054;BME280;51639;47.828;35.038;2023-07-16T23:20:50;100435.78;;;26.00;55.73
65054;BME280;51639;47.828;35.038;2023-07-16T23:35:52;100427.22;;;25.98;56.36
65054;BME280;51639;47.828;35.038;2023-07-16T23:50:54;100430.59;;;25.86;57.08
